Time;durP1;ratioP1;P1;durP2;ratioP2;P2;SDS_P1;SDS_P2;PMS_P1;PMS_P2;Temp;Humidity;BMP_temperature;BMP_pressure;BME280_temperature;BME280_humidity;BME280_pressure;Samples;Min_cycle;Max_cycle;Signal;HPM_P1;HPM_P2
2022/01/20 00:01:18;;;;;;;35.67;6.22;;;;;;;3.22;100.00;102307.53;10456231;28;20088;-56
2022/01/20 00:27:28;;;;;;;30.90;5.10;;;;;;;3.23;100.00;102330.84;10455490;28;20056;-54
2022/01/20 00:32:52;;;;;;;33.55;6.65;;;;;;;3.30;100.00;102327.34;10455224;28;20397;-52
2022/01/20 00:37:55;;;;;;;32.97;5.75;;;;;;;3.42;100.00;102323.88;10455874;28;20053;-56
2022/01/20 00:42:57;;;;;;;30.08;5.07;;;;;;;3.50;100.00;102336.81;10456430;28;20068;-55
2022/01/20 00:47:59;;;;;;;35.58;6.28;;;;;;;3.41;100.00;102331.63;10462319;28;20515;-52
2022/01/20 00:53:04;;;;;;;30.92;7.60;;;;;;;3.41;100.00;102326.47;10463630;28;20405;-58
2022/01/20 00:58:07;;;;;;;24.42;5.50;;;;;;;3.32;100.00;102324.75;10462186;28;20049;-56
2022/01/20 01:03:09;;;;;;;24.38;5.43;;;;;;;3.40;100.00;102335.13;10462916;28;20060;-55
2022/01/20 01:08:11;;;;;;;27.02;4.38;;;;;;;3.49;100.00;102341.09;10461919;28;20059;-54
2022/01/20 01:13:16;;;;;;;25.58;4.40;;;;;;;3.52;100.00;102345.44;10461660;28;20045;-58
2022/01/20 01:23:42;;;;;;;15.03;4.37;;;;;;;3.37;100.00;102327.34;10461062;28;20508;-55
2022/01/20 01:28:45;;;;;;;17.35;3.92;;;;;;;3.35;100.00;102340.28;10462071;28;20052;-57
2022/01/20 01:33:57;;;;;;;25.70;4.65;;;;;;;3.26;100.00;102345.47;10461628;28;20052;-58
2022/01/20 01:39:00;;;;;;;21.00;2.83;;;;;;;3.42;100.00;102335.97;10460364;28;20045;-53
2022/01/20 01:44:07;;;;;;;17.75;3.67;;;;;;;3.35;100.00;102335.13;10460389;28;20044;-58
2022/01/20 01:49:09;;;;;;;20.52;4.07;;;;;;;3.37;100.00;102337.72;10460126;28;20135;-58
2022/01/20 01:54:13;;;;;;;23.05;4.43;;;;;;;3.49;100.00;102340.25;10458739;28;20099;-54
2022/01/20 01:59:15;;;;;;;18.35;3.20;;;;;;;3.50;100.00;102348.03;10458623;28;20489;-58
2022/01/20 02:04:21;;;;;;;16.30;3.42;;;;;;;3.53;100.00;102348.00;10459618;28;20049;-54
2022/01/20 02:20:13;;;;;;;27.00;3.88;;;;;;;3.57;100.00;102343.69;10413721;28;20045;-54
2022/01/20 02:25:26;;;;;;;22.65;3.38;;;;;;;3.59;100.00;102356.63;10449936;28;20615;-57
2022/01/20 02:30:29;;;;;;;24.60;3.80;;;;;;;3.68;100.00;102373.00;10459313;28;20045;-55
2022/01/20 02:35:37;;;;;;;24.40;3.25;;;;;;;3.46;100.00;102353.19;10457039;28;20048;-56
2022/01/20 02:45:46;;;;;;;10.27;3.00;;;;;;;3.42;100.00;102334.22;10458720;28;20484;-58
2022/01/20 02:50:49;;;;;;;28.73;3.58;;;;;;;3.37;100.00;102333.38;10457803;28;20053;-52
2022/01/20 02:55:52;;;;;;;15.68;3.08;;;;;;;3.28;100.00;102336.00;10457680;28;20052;-55
2022/01/20 03:00:55;;;;;;;20.42;3.50;;;;;;;3.27;100.00;102357.56;10456432;28;20068;-55
2022/01/20 03:05:57;;;;;;;11.80;2.75;;;;;;;3.30;100.00;102335.13;10456648;28;20484;-56
2022/01/20 03:11:00;;;;;;;19.63;3.30;;;;;;;3.33;100.00;102334.28;10457385;28;20045;-55
2022/01/20 03:16:02;;;;;;;13.90;2.40;;;;;;;3.20;100.00;102325.66;10456502;28;20049;-56
2022/01/20 03:21:05;;;;;;;9.90;2.47;;;;;;;3.16;100.00;102322.22;10457072;28;20094;-54
2022/01/20 03:26:07;;;;;;;21.88;3.35;;;;;;;3.07;100.00;102332.56;10456732;28;20136;-56
2022/01/20 03:31:09;;;;;;;16.08;2.60;;;;;;;3.27;100.00;102319.59;10439522;28;20045;-56
2022/01/20 03:36:12;;;;;;;17.77;4.50;;;;;;;3.31;100.00;102320.44;10456229;28;20484;-57
2022/01/20 03:41:14;;;;;;;20.35;4.50;;;;;;;3.28;100.00;102326.50;10456206;28;20514;-57
2022/01/20 03:46:17;;;;;;;20.25;3.53;;;;;;;3.39;100.00;102338.56;10456527;28;20075;-57
2022/01/20 03:51:24;;;;;;;21.73;4.32;;;;;;;3.34;100.00;102347.19;10456960;28;20056;-56
2022/01/20 03:56:26;;;;;;;23.65;3.35;;;;;;;3.45;100.00;102348.91;10456814;28;20049;-58
2022/01/20 04:01:29;;;;;;;17.60;3.28;;;;;;;3.47;100.00;102360.97;10456044;28;20045;-56
2022/01/20 04:06:31;;;;;;;24.88;3.35;;;;;;;3.47;100.00;102365.28;10455741;28;20056;-55
2022/01/20 04:11:34;;;;;;;20.23;3.63;;;;;;;3.34;100.00;102361.88;10455803;28;20412;-58
2022/01/20 04:16:51;;;;;;;22.20;3.40;;;;;;;3.26;100.00;102356.72;10455790;28;20048;-54
2022/01/20 04:21:53;;;;;;;20.45;3.13;;;;;;;3.29;100.00;102361.00;10463606;28;20053;-56
2022/01/20 04:26:56;;;;;;;25.20;3.38;;;;;;;3.34;100.00;102370.47;10463220;28;20064;-55
2022/01/20 04:31:58;;;;;;;12.70;2.78;;;;;;;3.29;100.00;102382.56;10462053;28;20049;-56
2022/01/20 04:37:04;;;;;;;25.27;3.47;;;;;;;3.27;100.00;102386.91;10462715;28;20049;-57
2022/01/20 04:42:07;;;;;;;20.55;2.20;;;;;;;3.30;100.00;102396.41;10463242;28;20378;-58
2022/01/20 04:57:51;;;;;;;19.42;3.17;;;;;;;3.31;100.00;102419.69;10462767;28;20055;-58
2022/01/20 05:02:54;;;;;;;15.50;2.45;;;;;;;3.31;100.00;102419.69;10462561;28;20052;-57
2022/01/20 05:07:56;;;;;;;21.40;3.42;;;;;;;3.41;100.00;102424.84;10461629;28;20064;-56
2022/01/20 05:18:02;;;;;;;17.70;3.30;;;;;;;3.44;100.00;102430.03;10460969;28;20047;-57
2022/01/20 05:23:04;;;;;;;20.23;3.53;;;;;;;3.31;100.00;102439.53;10461363;28;20056;-54
2022/01/20 05:28:08;;;;;;;15.88;3.72;;;;;;;3.27;100.00;102440.41;10460328;28;20068;-57
2022/01/20 05:33:10;;;;;;;24.98;3.13;;;;;;;3.25;100.00;102458.53;10460653;28;20076;-58
2022/01/20 05:38:13;;;;;;;22.50;3.45;;;;;;;2.91;100.00;102452.50;10460470;28;20045;-57
2022/01/20 05:43:16;;;;;;;14.13;2.65;;;;;;;2.94;100.00;102468.88;10460451;28;20053;-55
2022/01/20 05:48:31;;;;;;;19.48;3.30;;;;;;;2.95;100.00;102486.09;10460343;28;20068;-58
2022/01/20 05:53:33;;;;;;;25.63;3.72;;;;;;;2.94;100.00;102484.41;10460013;28;20402;-58
2022/01/20 05:58:37;;;;;;;20.52;3.22;;;;;;;3.01;100.00;102482.69;10460084;28;20048;-56
2022/01/20 06:03:39;;;;;;;22.20;3.70;;;;;;;3.04;100.00;102494.75;10459290;28;20056;-55
2022/01/20 06:08:42;;;;;;;29.13;3.50;;;;;;;3.04;100.00;102505.09;10459469;28;20052;-54
2022/01/20 06:13:45;;;;;;;28.17;4.20;;;;;;;2.93;100.00;102511.13;10459579;28;20064;-57
2022/01/20 06:18:48;;;;;;;13.80;3.28;;;;;;;2.84;100.00;102528.34;10459078;28;20080;-54
2022/01/20 06:23:51;;;;;;;26.30;4.93;;;;;;;2.92;100.00;102524.06;10459033;28;20379;-54
2022/01/20 06:28:53;;;;;;;20.75;3.20;;;;;;;2.91;100.00;102532.69;10458873;28;20049;-57
2022/01/20 06:33:55;;;;;;;17.98;3.08;;;;;;;2.93;100.00;102533.56;10458629;28;20056;-54
2022/01/20 06:38:58;;;;;;;20.85;4.20;;;;;;;2.86;100.00;102529.22;10459220;28;20056;-57
2022/01/20 06:44:00;;;;;;;34.05;5.05;;;;;;;2.83;100.00;102549.91;10457481;28;20055;-56
2022/01/20 06:49:03;;;;;;;22.45;3.88;;;;;;;2.64;100.00;102567.06;10457803;28;20053;-58
2022/01/20 06:54:06;;;;;;;23.00;5.28;;;;;;;2.81;100.00;102560.25;10457853;28;20052;-57
2022/01/20 06:59:12;;;;;;;26.08;4.47;;;;;;;2.67;100.00;102561.91;10457578;28;20045;-54
2022/01/20 07:04:15;;;;;;;16.25;3.35;;;;;;;2.54;100.00;102582.56;10457499;28;20053;-54
2022/01/20 07:09:18;;;;;;;20.55;3.03;;;;;;;2.54;100.00;102598.09;10457749;28;20060;-54
2022/01/20 07:14:20;;;;;;;20.45;2.95;;;;;;;2.59;99.52;102621.38;10457454;28;20045;-56
2022/01/20 07:19:22;;;;;;;15.77;2.78;;;;;;;2.47;96.78;102624.78;10457341;28;20504;-56
2022/01/20 07:24:27;;;;;;;19.90;2.95;;;;;;;2.49;96.98;102617.88;10456741;28;20116;-56
2022/01/20 07:29:31;;;;;;;27.35;3.53;;;;;;;2.44;95.30;102611.81;10455851;28;20060;-57
2022/01/20 07:34:34;;;;;;;18.08;2.80;;;;;;;2.41;95.83;102607.47;10456999;28;20049;-57
2022/01/20 07:39:37;;;;;;;11.55;2.30;;;;;;;2.42;95.85;102604.06;10455564;28;20072;-58
2022/01/20 07:44:39;;;;;;;13.30;2.75;;;;;;;2.34;96.08;102608.31;10456456;28;20051;-56
2022/01/20 07:49:42;;;;;;;9.45;2.60;;;;;;;2.10;97.52;102631.41;10456330;28;20076;-56
2022/01/20 07:54:44;;;;;;;8.25;2.30;;;;;;;2.03;98.92;102639.13;10462800;28;20401;-56
2022/01/20 07:59:47;;;;;;;8.63;2.15;;;;;;;2.15;100.00;102647.81;10463204;28;20057;-53
2022/01/20 08:04:49;;;;;;;11.80;2.45;;;;;;;2.20;99.76;102649.59;10464335;28;20045;-55
2022/01/20 08:09:57;;;;;;;20.77;2.78;;;;;;;2.44;99.15;102662.66;10464960;28;20049;-58
2022/01/20 08:15:01;;;;;;;15.20;2.92;;;;;;;2.32;98.10;102666.00;10463940;28;20041;-56
2022/01/20 08:20:05;;;;;;;13.38;2.85;;;;;;;2.58;98.66;102668.78;10463718;28;20045;-54
2022/01/20 08:25:10;;;;;;;20.88;2.65;;;;;;;2.67;98.97;102662.78;10464049;28;20081;-58
2022/01/20 08:30:15;;;;;;;9.73;2.70;;;;;;;2.70;97.10;102674.00;10463493;28;20127;-58
2022/01/20 08:35:20;;;;;;;16.90;2.50;;;;;;;2.66;96.74;102668.84;10463712;28;20049;-56
2022/01/20 08:40:22;;;;;;;15.02;3.05;;;;;;;2.79;95.11;102674.06;10462875;28;20508;-54
2022/01/20 08:45:30;;;;;;;15.73;3.53;;;;;;;2.91;95.02;102673.28;10463114;28;20053;-56
2022/01/20 08:50:33;;;;;;;16.35;2.63;;;;;;;2.80;93.68;102685.28;10462590;28;20057;-54
2022/01/20 08:55:37;;;;;;;17.15;3.53;;;;;;;2.90;93.78;102693.97;10462644;28;20041;-57
2022/01/20 09:00:39;;;;;;;16.77;3.00;;;;;;;2.99;93.68;102691.41;10461237;28;20059;-56
2022/01/20 09:05:42;;;;;;;14.07;2.55;;;;;;;3.03;94.36;102703.50;10461363;28;20051;-56
2022/01/20 09:10:51;;;;;;;15.52;3.47;;;;;;;3.12;93.71;102702.69;10461336;28;20080;-57
2022/01/20 09:15:55;;;;;;;17.02;3.72;;;;;;;4.07;87.12;102705.50;10461688;28;20041;-58
2022/01/20 09:20:57;;;;;;;17.00;2.67;;;;;;;3.29;90.30;102716.53;10461791;28;20060;-55
2022/01/20 09:26:00;;;;;;;14.23;3.15;;;;;;;3.21;92.97;102727.72;10460994;28;20076;-54
2022/01/20 09:31:03;;;;;;;12.15;2.85;;;;;;;2.98;96.36;102762.16;10461085;28;20062;-54
2022/01/20 09:36:10;;;;;;;16.67;2.88;;;;;;;2.28;100.00;102778.00;10460753;28;20056;-57
2022/01/20 09:41:12;;;;;;;17.65;3.55;;;;;;;2.15;100.00;102766.69;10460859;28;20041;-51
2022/01/20 09:46:15;;;;;;;19.30;2.80;;;;;;;2.27;100.00;102760.75;10460339;28;20056;-54
2022/01/20 09:51:18;;;;;;;12.98;2.63;;;;;;;2.75;100.00;102767.16;10460235;28;20456;-57
2022/01/20 09:56:21;;;;;;;15.25;2.60;;;;;;;2.46;100.00;102764.38;10458777;28;20056;-55
2022/01/20 10:01:47;;;;;;;10.18;2.30;;;;;;;2.57;100.00;102771.38;10459574;28;20053;-54
2022/01/20 10:07:02;;;;;;;11.25;2.20;;;;;;;3.11;100.00;102776.88;10460032;28;20068;-55
2022/01/20 10:12:06;;;;;;;12.45;2.88;;;;;;;5.33;96.08;102771.88;10459461;28;20070;-55
2022/01/20 10:17:31;;;;;;;15.30;2.15;;;;;;;5.07;87.68;102760.72;10458419;28;20064;-57
2022/01/20 10:22:36;;;;;;;10.35;2.58;;;;;;;3.75;100.00;102784.91;10459721;28;20049;-56
2022/01/20 10:27:50;;;;;;;12.75;2.50;;;;;;;3.17;100.00;102792.44;10459350;28;20140;-57
2022/01/20 10:32:56;;;;;;;18.27;3.30;;;;;;;3.14;100.00;102805.38;10458596;28;20041;-55
2022/01/20 10:38:09;;;;;;;13.52;3.00;;;;;;;3.56;100.00;102802.13;10458396;28;20488;-56
2022/01/20 10:43:20;;;;;;;19.77;3.95;;;;;;;3.86;97.60;102817.75;10458197;28;20053;-56
2022/01/20 10:48:22;;;;;;;17.23;3.45;;;;;;;4.17;98.76;102806.59;10457816;28;20504;-57
2022/01/20 10:53:25;;;;;;;14.73;3.15;;;;;;;4.09;98.50;102810.03;10457733;28;20580;-54
2022/01/20 10:58:28;;;;;;;16.98;3.28;;;;;;;3.78;98.30;102814.28;10457833;28;20071;-57
2022/01/20 11:03:32;;;;;;;20.80;3.85;;;;;;;3.80;98.40;102816.88;10456279;28;20128;-58
2022/01/20 11:08:40;;;;;;;19.40;3.55;;;;;;;3.77;95.05;102804.78;10457254;28;20057;-55
2022/01/20 11:13:42;;;;;;;19.20;3.88;;;;;;;4.09;91.88;102793.63;10456463;28;20128;-55
2022/01/20 11:18:45;;;;;;;18.83;3.35;;;;;;;4.25;91.33;102790.22;10455830;28;20693;-58
2022/01/20 11:23:48;;;;;;;15.75;3.88;;;;;;;4.55;88.61;102779.81;10456867;28;20452;-58
2022/01/20 11:29:00;;;;;;;12.63;2.83;;;;;;;4.70;87.42;102774.63;10456434;28;20577;-57
2022/01/20 11:34:13;;;;;;;12.88;2.85;;;;;;;4.65;84.27;102772.03;10456938;28;20497;-57
2022/01/20 11:39:19;;;;;;;14.35;3.83;;;;;;;4.44;85.13;102778.09;10456608;28;20045;-58
2022/01/20 11:44:29;;;;;;;15.73;3.25;;;;;;;4.51;87.48;102771.19;10457157;28;20045;-54
2022/01/20 11:49:39;;;;;;;9.48;2.65;;;;;;;4.83;83.22;102771.13;10455571;28;20045;-56
2022/01/20 11:54:45;;;;;;;14.07;2.38;;;;;;;4.56;85.42;102782.44;10456582;28;20044;-56
2022/01/20 11:59:59;;;;;;;17.35;3.30;;;;;;;4.70;83.97;102774.63;10456487;28;20110;-54
2022/01/20 12:05:03;;;;;;;11.70;2.20;;;;;;;4.58;82.11;102774.63;10456398;28;20055;-55
2022/01/20 12:10:24;;;;;;;14.35;2.53;;;;;;;4.61;83.37;102770.31;10454707;28;20061;-52
2022/01/20 12:15:26;;;;;;;10.60;2.90;;;;;;;4.50;82.69;102781.56;10456661;28;20049;-56
2022/01/20 12:20:29;;;;;;;10.00;2.70;;;;;;;4.14;81.83;102796.25;10456205;28;20508;-58
2022/01/20 12:25:33;;;;;;;11.73;2.17;;;;;;;4.07;87.70;102800.56;10455703;28;20045;-58
2022/01/20 12:30:39;;;;;;;10.63;2.15;;;;;;;3.51;97.78;102786.56;10455569;28;20060;-52
2022/01/20 12:35:49;;;;;;;4.07;1.48;;;;;;;3.65;99.86;102778.84;10454295;28;20049;-52
2022/01/20 12:41:10;;;;;;;8.20;1.90;;;;;;;3.60;98.89;102781.41;10459856;28;20055;-56
2022/01/20 12:46:26;;;;;;;11.45;2.08;;;;;;;3.65;96.89;102781.44;10461690;28;20045;-51
2022/01/20 12:51:37;;;;;;;9.07;1.90;;;;;;;3.96;95.94;102769.41;10463086;28;20056;-53
2022/01/20 12:56:42;;;;;;;10.87;2.40;;;;;;;4.28;90.76;102747.84;10462272;28;20485;-55
2022/01/20 13:01:46;;;;;;;8.05;2.25;;;;;;;4.23;85.91;102744.38;10462447;28;20057;-55
2022/01/20 13:06:56;;;;;;;13.68;2.90;;;;;;;4.20;85.11;102762.53;10461827;28;20111;-56
2022/01/20 13:11:59;;;;;;;12.40;2.10;;;;;;;3.89;82.08;102758.16;10461921;28;20061;-55
2022/01/20 13:17:03;;;;;;;8.95;2.30;;;;;;;4.13;84.05;102759.06;10461926;28;20072;-56
2022/01/20 13:22:18;;;;;;;16.45;2.00;;;;;;;4.16;85.05;102778.97;10461526;28;20049;-53
2022/01/20 13:27:21;;;;;;;15.65;2.28;;;;;;;4.05;84.73;102777.22;10461214;28;20513;-53
2022/01/20 13:32:23;;;;;;;22.15;3.70;;;;;;;4.19;85.05;102774.63;10461033;28;20056;-54
2022/01/20 13:37:26;;;;;;;24.33;3.25;;;;;;;4.34;86.11;102771.19;10461071;28;20060;-54
2022/01/20 13:42:37;;;;;;;12.80;2.83;;;;;;;4.42;84.93;102769.47;10461474;28;20049;-53
2022/01/20 13:47:53;;;;;;;15.73;2.53;;;;;;;4.22;84.59;102779.81;10461038;28;20045;-56
2022/01/20 13:52:56;;;;;;;15.27;2.90;;;;;;;5.29;83.48;102770.16;10460368;28;20040;-57
2022/01/20 13:58:00;;;;;;;12.77;3.05;;;;;;;5.09;82.17;102772.81;10460086;28;20052;-55
2022/01/20 14:03:06;;;;;;;17.13;3.47;;;;;;;4.47;80.83;102772.91;10459687;28;20413;-55
2022/01/20 14:08:09;;;;;;;12.77;2.25;;;;;;;4.57;79.47;102767.72;10458561;28;20443;-54
2022/01/20 14:13:11;;;;;;;8.30;3.03;;;;;;;4.22;80.79;102766.88;10459412;28;20049;-50
2022/01/20 14:18:19;;;;;;;10.55;2.28;;;;;;;4.03;82.42;102778.91;10458575;28;20567;-56
2022/01/20 14:23:21;;;;;;;12.45;2.58;;;;;;;3.77;83.13;102803.94;10459683;28;20045;-55
2022/01/20 14:28:24;;;;;;;18.88;2.95;;;;;;;3.38;89.58;102814.13;10458615;28;20049;-57
2022/01/20 14:33:26;;;;;;;16.00;3.10;;;;;;;2.94;97.39;102849.25;10458803;28;20049;-54
2022/01/20 14:38:28;;;;;;;14.25;3.22;;;;;;;2.79;100.00;102851.69;10458166;28;20068;-54
2022/01/20 14:43:31;;;;;;;17.25;3.33;;;;;;;2.75;100.00;102848.22;10457655;28;20048;-54
2022/01/20 14:48:34;;;;;;;12.02;2.70;;;;;;;2.87;100.00;102842.28;10458120;28;20103;-55
2022/01/20 14:53:37;;;;;;;16.48;3.88;;;;;;;2.96;100.00;102847.53;10458194;28;20045;-54
2022/01/20 14:58:39;;;;;;;15.35;2.63;;;;;;;2.78;100.00;102857.75;10457952;28;20045;-56
2022/01/20 15:03:41;;;;;;;13.75;3.30;;;;;;;2.70;100.00;102856.81;10456997;28;20053;-55
2022/01/20 15:08:44;;;;;;;17.50;5.00;;;;;;;2.67;100.00;102854.19;10457355;28;20559;-52
2022/01/20 15:13:46;;;;;;;21.52;4.50;;;;;;;2.66;100.00;102847.31;10457323;28;20053;-54
2022/01/20 15:18:48;;;;;;;20.15;5.30;;;;;;;2.76;100.00;102847.38;10457097;28;20052;-54
2022/01/20 15:23:51;;;;;;;17.67;4.82;;;;;;;2.70;100.00;102846.47;10455691;28;20136;-55
2022/01/20 15:28:58;;;;;;;19.77;3.85;;;;;;;2.73;100.00;102869.78;10456746;28;20057;-57
2022/01/20 15:34:00;;;;;;;22.08;3.83;;;;;;;2.42;100.00;102867.78;10456625;28;20401;-52
2022/01/20 15:39:05;;;;;;;17.02;3.38;;;;;;;2.62;100.00;102876.56;10456962;28;20067;-55
2022/01/20 15:44:08;;;;;;;23.23;4.93;;;;;;;2.38;100.00;102868.56;10456451;28;20049;-57
2022/01/20 15:49:10;;;;;;;28.00;6.10;;;;;;;2.19;100.00;102864.94;10455187;28;20082;-52
2022/01/20 15:54:12;;;;;;;24.73;5.45;;;;;;;2.33;100.00;102871.97;10456784;28;20048;-55
2022/01/20 15:59:15;;;;;;;20.98;4.13;;;;;;;2.14;100.00;102871.78;10455925;28;20052;-55
2022/01/20 16:04:18;;;;;;;26.98;4.70;;;;;;;2.14;100.00;102871.78;10456087;28;20531;-57
2022/01/20 16:09:21;;;;;;;19.60;3.63;;;;;;;2.14;100.00;102878.69;10456235;28;20064;-55
2022/01/20 16:14:24;;;;;;;28.38;6.30;;;;;;;2.30;100.00;102902.97;10458309;28;20049;-57
2022/01/20 16:19:26;;;;;;;26.92;4.85;;;;;;;2.06;100.00;102895.81;10464490;28;20052;-55
2022/01/20 16:24:29;;;;;;;26.60;6.00;;;;;;;2.08;100.00;102896.69;10462623;28;20059;-56
2022/01/20 16:29:31;;;;;;;13.95;3.47;;;;;;;2.04;100.00;102890.63;10463561;28;20064;-54
2022/01/20 16:34:33;;;;;;;16.95;4.65;;;;;;;1.83;100.00;102902.44;10462381;28;20045;-55
2022/01/20 16:39:36;;;;;;;12.52;2.72;;;;;;;1.81;100.00;102905.81;10463181;28;20041;-54
2022/01/20 16:44:39;;;;;;;18.80;3.50;;;;;;;1.86;100.00;102915.38;10462798;28;20408;-53
2022/01/20 16:49:41;;;;;;;15.88;4.10;;;;;;;1.68;100.00;102917.69;10462706;28;20159;-58
2022/01/20 16:54:44;;;;;;;13.77;5.45;;;;;;;1.52;100.00;102921.78;10462814;28;20482;-54
2022/01/20 16:59:48;;;;;;;17.58;4.53;;;;;;;1.65;100.00;102921.13;10462460;28;20052;-55
2022/01/20 17:04:50;;;;;;;14.88;5.22;;;;;;;1.49;100.00;102927.78;10462209;28;20079;-49
2022/01/20 17:09:53;;;;;;;10.40;4.00;;;;;;;1.49;100.00;102929.50;10462266;28;20056;-55
2022/01/20 17:14:55;;;;;;;17.50;4.03;;;;;;;1.46;100.00;102942.34;10462208;28;20049;-53
2022/01/20 17:19:58;;;;;;;23.20;5.35;;;;;;;1.32;100.00;102946.44;10461702;28;20045;-57
2022/01/20 17:25:00;;;;;;;19.48;5.35;;;;;;;1.46;100.00;102951.00;10460744;28;20393;-54
2022/01/20 17:30:03;;;;;;;15.57;3.75;;;;;;;1.33;100.00;102961.06;10460999;28;20056;-52
2022/01/20 17:35:07;;;;;;;20.73;5.05;;;;;;;1.51;100.00;102963.94;10461439;28;20049;-57
2022/01/20 17:40:11;;;;;;;27.27;4.53;;;;;;;1.37;100.00;102960.28;10460516;28;20067;-51
2022/01/20 17:45:13;;;;;;;10.73;3.05;;;;;;;1.33;100.00;102959.38;10460718;28;20056;-55
2022/01/20 17:50:16;;;;;;;16.63;3.92;;;;;;;1.38;100.00;102954.28;10460360;28;20485;-56
2022/01/20 17:55:20;;;;;;;14.07;3.60;;;;;;;1.34;100.00;102966.25;10460476;28;20056;-52
2022/01/20 18:00:25;;;;;;;19.13;3.80;;;;;;;1.34;100.00;102981.75;10459676;28;20477;-55
2022/01/20 18:05:27;;;;;;;18.20;3.45;;;;;;;1.13;100.00;102986.56;10460174;28;20067;-54
2022/01/20 18:10:30;;;;;;;11.05;2.70;;;;;;;1.25;100.00;102990.22;10459640;28;20057;-56
2022/01/20 18:15:36;;;;;;;17.65;5.18;;;;;;;1.08;100.00;102995.09;10459745;28;20048;-55
2022/01/20 18:20:39;;;;;;;12.68;3.35;;;;;;;1.10;100.00;103010.59;10459119;28;20065;-57
2022/01/20 18:25:41;;;;;;;17.17;3.63;;;;;;;1.17;100.00;103014.16;10458995;28;20048;-56
2022/01/20 18:30:43;;;;;;;15.30;2.83;;;;;;;1.33;100.00;103026.50;10458914;28;20059;-53
2022/01/20 18:35:46;;;;;;;19.63;4.15;;;;;;;1.43;100.00;103045.56;10458442;28;20057;-55
2022/01/20 18:40:53;;;;;;;15.40;4.35;;;;;;;1.36;100.00;103046.31;10457009;28;20053;-51
2022/01/20 18:45:55;;;;;;;17.80;5.88;;;;;;;1.21;100.00;103042.63;10458488;28;20513;-54
2022/01/20 18:51:16;;;;;;;17.02;5.30;;;;;;;1.16;100.00;103044.28;10458697;28;20231;-55
2022/01/20 18:56:20;;;;;;;18.58;4.72;;;;;;;1.05;100.00;103038.03;10458033;28;20053;-55
2022/01/20 19:01:22;;;;;;;16.83;5.18;;;;;;;1.08;100.00;103025.19;10457625;28;20072;-55
2022/01/20 19:06:25;;;;;;;23.25;5.25;;;;;;;1.12;100.00;103039.88;10457396;28;20055;-54
2022/01/20 19:11:27;;;;;;;16.63;5.82;;;;;;;1.05;100.00;103045.78;10457377;28;20059;-54
2022/01/20 19:16:29;;;;;;;12.65;4.18;;;;;;;1.06;100.00;103048.38;10457414;28;20072;-54
2022/01/20 19:21:32;;;;;;;16.13;3.67;;;;;;;1.13;100.00;103044.22;10457451;28;20041;-55
2022/01/20 19:26:34;;;;;;;16.38;3.83;;;;;;;1.22;100.00;103067.59;10457003;28;20048;-55
2022/01/20 19:31:37;;;;;;;18.15;3.33;;;;;;;1.38;100.00;103057.53;10456823;28;20061;-53
2022/01/20 19:36:39;;;;;;;10.20;3.65;;;;;;;1.36;100.00;103067.84;10456482;28;20493;-54
2022/01/20 19:41:41;;;;;;;16.33;3.47;;;;;;;1.30;100.00;103080.63;10457063;28;20056;-54
2022/01/20 19:46:44;;;;;;;17.38;3.70;;;;;;;1.26;100.00;103065.91;10456603;28;20045;-56
2022/01/20 19:51:46;;;;;;;20.70;3.97;;;;;;;1.24;100.00;103076.22;10464713;28;20057;-52
2022/01/20 19:56:49;;;;;;;16.05;3.80;;;;;;;1.09;100.00;103083.69;10464454;28;20412;-54
2022/01/20 20:01:53;;;;;;;12.93;2.88;;;;;;;0.98;100.00;103083.50;10464588;28;20060;-55
2022/01/20 20:07:08;;;;;;;11.77;2.97;;;;;;;0.99;100.00;103086.94;10464370;28;20045;-55
2022/01/20 20:12:12;;;;;;;15.93;4.28;;;;;;;0.89;100.00;103085.88;10462868;28;20118;-55
2022/01/20 20:17:14;;;;;;;13.27;3.75;;;;;;;0.92;100.00;103085.94;10463900;28;20049;-52
2022/01/20 20:22:17;;;;;;;26.00;5.22;;;;;;;1.03;100.00;103105.09;10463765;28;20049;-55
2022/01/20 20:27:19;;;;;;;11.40;3.85;;;;;;;0.95;100.00;103110.94;10463486;28;20516;-57
2022/01/20 20:32:21;;;;;;;19.95;4.20;;;;;;;0.96;100.00;103118.72;10462972;28;20060;-51
2022/01/20 20:37:24;;;;;;;12.60;3.60;;;;;;;0.84;100.00;103115.88;10463318;28;20052;-52
2022/01/20 20:42:26;;;;;;;29.42;5.75;;;;;;;0.88;100.00;103115.09;10462126;28;20056;-52
2022/01/20 20:47:28;;;;;;;18.27;6.07;;;;;;;1.14;100.00;103125.06;10462747;28;20056;-53
2022/01/20 20:52:31;;;;;;;18.10;4.75;;;;;;;1.30;100.00;103137.41;10463016;28;20062;-52
2022/01/20 20:57:33;;;;;;;21.33;4.75;;;;;;;1.35;100.00;103133.22;10461402;28;20049;-51
2022/01/20 21:02:36;;;;;;;19.45;4.63;;;;;;;1.30;100.00;103140.00;10461464;28;20081;-54
2022/01/20 21:07:41;;;;;;;18.38;4.90;;;;;;;1.05;100.00;103136.06;10462230;28;20064;-53
2022/01/20 21:12:43;;;;;;;18.70;4.32;;;;;;;1.03;100.00;103127.44;10461961;28;20056;-54
2022/01/20 21:17:46;;;;;;;21.02;5.47;;;;;;;0.96;100.00;103144.50;10461659;28;20499;-53
2022/01/20 21:22:48;;;;;;;19.83;4.22;;;;;;;0.86;100.00;103150.31;10461558;28;20053;-54
2022/01/20 21:27:51;;;;;;;13.20;3.17;;;;;;;0.91;100.00;103172.78;10461535;28;20044;-53
2022/01/20 21:32:54;;;;;;;18.13;5.20;;;;;;;0.72;100.00;103163.78;10461990;28;20128;-50
2022/01/20 21:37:56;;;;;;;18.80;5.05;;;;;;;0.77;100.00;103160.44;10460729;28;20485;-55
2022/01/20 21:42:58;;;;;;;13.25;3.92;;;;;;;0.72;100.00;103174.09;10460678;28;20222;-53
2022/01/20 21:48:19;;;;;;;17.48;4.00;;;;;;;0.92;100.00;103169.38;10460702;28;20056;-54
2022/01/20 21:53:22;;;;;;;23.88;5.10;;;;;;;0.86;100.00;103176.13;10460907;28;20041;-55
2022/01/20 21:58:25;;;;;;;16.77;4.68;;;;;;;0.87;100.00;103173.53;10460050;28;20508;-53
2022/01/20 22:03:27;;;;;;;17.63;3.47;;;;;;;0.87;100.00;103175.25;10459875;28;20503;-55
2022/01/20 22:08:34;;;;;;;15.75;3.25;;;;;;;0.96;100.00;103177.16;10460297;28;20053;-51
2022/01/20 22:13:41;;;;;;;24.98;4.60;;;;;;;0.85;100.00;103193.28;10459848;28;20080;-52
2022/01/20 22:18:43;;;;;;;18.48;3.97;;;;;;;0.96;100.00;103185.78;10459691;28;20045;-54
2022/01/20 22:23:45;;;;;;;13.80;4.00;;;;;;;0.97;100.00;103189.22;10459009;28;20045;-56
2022/01/20 22:28:48;;;;;;;26.58;4.13;;;;;;;0.98;100.00;103184.09;10459277;28;20064;-56
2022/01/20 22:33:50;;;;;;;12.50;3.45;;;;;;;1.14;100.00;103182.69;10457695;28;20056;-55
2022/01/20 22:38:53;;;;;;;14.27;4.85;;;;;;;1.19;100.00;103188.81;10458936;28;20056;-56
2022/01/20 22:43:55;;;;;;;16.42;3.78;;;;;;;1.41;100.00;103196.97;10458849;28;20053;-56
2022/01/20 22:48:58;;;;;;;21.15;3.00;;;;;;;1.50;100.00;103192.00;10458340;28;20056;-56
2022/01/20 22:54:00;;;;;;;14.18;3.50;;;;;;;1.45;100.00;103207.41;10457984;28;20053;-55
2022/01/20 22:59:10;;;;;;;16.83;3.60;;;;;;;1.59;100.00;103193.88;10457784;28;20052;-56
2022/01/20 23:04:13;;;;;;;13.25;2.58;;;;;;;1.62;100.00;103204.28;10457441;28;20049;-55
2022/01/20 23:09:15;;;;;;;15.45;3.90;;;;;;;1.67;100.00;103212.97;10457134;28;20060;-53
2022/01/20 23:14:21;;;;;;;18.70;3.10;;;;;;;1.58;100.00;103221.44;10457793;28;20045;-54
2022/01/20 23:24:38;;;;;;;15.70;2.90;;;;;;;1.37;100.00;103221.00;10457324;28;20045;-56
2022/01/20 23:29:40;;;;;;;16.45;2.70;;;;;;;1.33;100.00;103219.19;10456823;28;20511;-52
2022/01/20 23:34:43;;;;;;;13.77;2.67;;;;;;;1.27;100.00;103236.28;10456836;28;20052;-54
2022/01/20 23:39:46;;;;;;;16.23;3.08;;;;;;;1.18;100.00;103241.28;10456282;28;20045;-55
2022/01/20 23:45:01;;;;;;;16.30;3.38;;;;;;;1.16;100.00;103257.56;10456549;28;20049;-57
2022/01/20 23:50:04;;;;;;;16.35;3.50;;;;;;;1.17;100.00;103249.00;10456490;28;20397;-52
2022/01/20 23:55:07;;;;;;;9.80;2.75;;;;;;;1.23;100.00;103256.88;10455105;28;20049;-50
